Time;durP1;ratioP1;P1;durP2;ratioP2;P2;SDS_P1;SDS_P2;PMS_P1;PMS_P2;Temp;Humidity;BMP_temperature;BMP_pressure;BME280_temperature;BME280_humidity;BME280_pressure;Samples;Min_cycle;Max_cycle;Signal;HPM_P1;HPM_P2
2021/12/08 00:00:47;;;;;;;10.13;1.90;;;;;;;-144.19;66.88;76346.94;4977442;28;20109;-89
2021/12/08 00:03:14;;;;;;;5.20;1.70;;;;;;;-144.19;66.30;76348.91;4993280;28;20058;-88
2021/12/08 00:05:44;;;;;;;9.18;1.90;;;;;;;-144.19;66.17;76335.16;4975887;28;20058;-91
2021/12/08 00:08:12;;;;;;;6.40;1.42;;;;;;;-144.19;66.76;76348.91;4992992;28;20057;-88
2021/12/08 00:13:30;;;;;;;5.57;1.73;;;;;;;-144.19;68.43;76341.06;4966404;28;20137;-92
2021/12/08 00:16:01;;;;;;;6.07;2.03;;;;;;;-144.19;68.59;76331.22;4996667;28;20078;-91
2021/12/08 00:18:32;;;;;;;5.40;1.73;;;;;;;-144.19;70.37;76350.88;4979412;28;20138;-89
2021/12/08 00:21:04;;;;;;;6.70;1.95;;;;;;;-144.19;70.31;76335.16;4979416;28;20053;-88
2021/12/08 00:23:30;;;;;;;7.47;2.38;;;;;;;-144.19;71.31;76339.09;4979038;28;20060;-90
2021/12/08 00:26:00;;;;;;;6.13;2.05;;;;;;;-144.19;71.82;76331.22;4996452;28;20531;-89
2021/12/08 00:28:27;;;;;;;7.97;2.42;;;;;;;-144.19;71.71;76331.22;4979125;28;20054;-88
2021/12/08 00:30:56;;;;;;;5.60;2.50;;;;;;;-144.19;73.38;76331.22;4978819;28;20061;-90
2021/12/08 00:33:23;;;;;;;3.97;1.85;;;;;;;-144.19;73.56;76315.47;4979123;28;20312;-90
2021/12/08 00:35:51;;;;;;;6.05;1.65;;;;;;;-144.19;74.63;76335.16;5011514;28;20058;-91
2021/12/08 00:38:19;;;;;;;4.32;1.83;;;;;;;-144.19;75.02;76333.19;4998945;28;20057;-89
2021/12/08 00:40:48;;;;;;;4.70;1.80;;;;;;;-144.19;75.77;76327.28;5015753;28;20145;-88
2021/12/08 00:43:15;;;;;;;8.35;2.42;;;;;;;-144.19;77.36;76327.28;4998219;28;20054;-91
2021/12/08 00:45:42;;;;;;;7.68;2.15;;;;;;;-144.19;77.83;76331.22;4998121;28;20511;-90
2021/12/08 00:48:08;;;;;;;3.45;1.80;;;;;;;-144.19;78.16;76343.03;4997970;28;20050;-88
2021/12/08 00:50:38;;;;;;;7.23;1.77;;;;;;;-144.19;80.07;76339.09;5015741;28;20056;-90
2021/12/08 00:53:05;;;;;;;3.67;1.92;;;;;;;-144.19;80.77;76350.88;4997872;28;20053;-91
2021/12/08 00:55:32;;;;;;;5.63;1.70;;;;;;;-144.19;80.99;76346.94;4985498;28;20124;-89
2021/12/08 00:57:59;;;;;;;5.07;1.77;;;;;;;-144.19;81.86;76354.81;4978125;28;20052;-89
2021/12/08 01:00:33;;;;;;;6.15;1.92;;;;;;;-144.19;82.25;76354.81;4978317;28;20082;-91
2021/12/08 01:02:59;;;;;;;4.85;1.98;;;;;;;-144.19;82.42;76354.81;4995905;28;20096;-90
2021/12/08 01:05:30;;;;;;;8.77;1.77;;;;;;;-144.19;82.85;76366.63;5000567;22;20042;-86
2021/12/08 01:07:57;;;;;;;5.90;1.98;;;;;;;-144.19;83.38;76370.56;4997198;28;20141;-86
2021/12/08 01:10:26;;;;;;;5.97;1.83;;;;;;;-144.19;83.57;76358.75;4997520;28;20487;-86
2021/12/08 01:13:05;;;;;;;8.27;2.05;;;;;;;-144.19;83.24;76370.56;4981818;28;20097;-86
2021/12/08 01:15:33;;;;;;;3.40;2.00;;;;;;;-144.19;83.84;76362.69;5001358;28;20083;-86
2021/12/08 01:18:00;;;;;;;8.85;2.40;;;;;;;-144.19;83.35;76378.44;4997851;28;20076;-86
2021/12/08 01:20:26;;;;;;;7.20;2.33;;;;;;;-144.19;84.03;76374.50;5016944;28;20058;-86
2021/12/08 01:22:53;;;;;;;5.68;1.95;;;;;;;-144.19;84.05;76378.44;4997831;28;20452;-87
2021/12/08 01:25:21;;;;;;;4.50;1.85;;;;;;;-144.19;84.15;76366.63;4999670;28;20042;-86
2021/12/08 01:27:47;;;;;;;5.80;1.70;;;;;;;-144.19;84.24;76376.47;4998146;28;20046;-85
2021/12/08 01:30:14;;;;;;;8.30;1.98;;;;;;;-144.19;83.25;76356.78;5016593;28;20058;-86
2021/12/08 01:32:41;;;;;;;4.13;1.65;;;;;;;-144.19;84.04;76364.66;4998780;28;20137;-87
2021/12/08 01:35:10;;;;;;;3.05;1.60;;;;;;;-144.19;83.67;76352.84;5004868;28;20136;-85
2021/12/08 01:37:38;;;;;;;8.02;1.90;;;;;;;-144.19;84.25;76366.63;5014843;28;20053;-85
2021/12/08 01:40:07;;;;;;;7.07;2.40;;;;;;;-144.19;83.35;76362.69;5031129;28;20049;-87
2021/12/08 01:42:41;;;;;;;5.22;1.95;;;;;;;-144.19;83.66;76362.69;5014176;28;20056;-85
2021/12/08 01:47:55;;;;;;;5.88;1.70;;;;;;;-144.19;84.11;76356.78;5015433;28;20500;-86
2021/12/08 01:50:22;;;;;;;7.40;2.13;;;;;;;-144.19;84.45;76378.44;5014851;28;20420;-86
2021/12/08 01:52:49;;;;;;;7.20;2.07;;;;;;;-144.19;84.66;76370.56;5014467;28;20061;-85
2021/12/08 01:55:15;;;;;;;7.47;2.50;;;;;;;-144.19;85.09;76362.69;5013931;28;20285;-85
2021/12/08 01:57:43;;;;;;;3.05;2.17;;;;;;;-144.19;85.30;76358.75;5012934;28;20061;-86
2021/12/08 02:00:15;;;;;;;5.57;2.22;;;;;;;-144.19;85.64;76354.81;5013359;28;20050;-86
2021/12/08 02:02:43;;;;;;;4.28;1.80;;;;;;;-144.19;86.25;76358.75;5014154;28;20060;-85
2021/12/08 02:05:09;;;;;;;3.38;1.95;;;;;;;-144.19;86.34;76358.75;5015632;28;20619;-86
2021/12/08 02:07:36;;;;;;;4.20;2.10;;;;;;;-144.19;86.63;76362.69;5053874;28;20132;-84
2021/12/08 02:10:05;;;;;;;6.30;2.13;;;;;;;-144.19;87.19;76366.63;5036882;28;20053;-86
2021/12/08 02:12:35;;;;;;;6.53;2.38;;;;;;;-144.19;86.59;76358.75;5037332;28;20291;-86
2021/12/08 02:15:03;;;;;;;5.93;2.17;;;;;;;-144.19;86.88;76368.59;5037236;28;20045;-85
2021/12/08 02:17:29;;;;;;;7.30;2.78;;;;;;;-144.19;87.24;76364.66;5036131;28;20055;-85
2021/12/08 02:19:56;;;;;;;6.77;2.20;;;;;;;-144.19;87.07;76366.63;5037043;28;20051;-86
2021/12/08 02:22:22;;;;;;;6.43;2.13;;;;;;;-144.19;87.50;76362.69;5055188;28;20049;-86
2021/12/08 02:24:49;;;;;;;3.73;1.90;;;;;;;-144.19;87.88;76356.78;5055270;28;20056;-86
2021/12/08 02:27:15;;;;;;;4.37;2.07;;;;;;;-144.19;87.50;76366.63;5036140;28;20287;-86
2021/12/08 02:29:50;;;;;;;4.85;1.70;;;;;;;-144.19;87.70;76358.75;5036747;28;20053;-85
2021/12/08 02:48:56;;;;;;;10.15;2.95;;;;;;;-144.19;89.65;76346.94;5029871;28;20045;-85
2021/12/08 02:51:23;;;;;;;3.00;2.47;;;;;;;-144.19;90.04;76350.88;5034510;28;20225;-86
2021/12/08 02:53:50;;;;;;;7.13;2.78;;;;;;;-144.19;89.71;76350.88;5051860;28;20492;-85
2021/12/08 02:56:17;;;;;;;4.78;2.17;;;;;;;-144.19;89.89;76350.88;5033431;28;20075;-85
2021/12/08 02:58:43;;;;;;;5.53;2.42;;;;;;;-144.19;90.39;76346.94;5051940;28;20045;-85
2021/12/08 03:01:11;;;;;;;7.53;3.67;;;;;;;-144.19;90.10;76348.91;5052210;28;20056;-84
2021/12/08 03:03:38;;;;;;;5.93;3.30;;;;;;;-144.19;90.59;76350.88;5036436;28;20287;-85
2021/12/08 03:06:06;;;;;;;4.78;2.42;;;;;;;-144.19;90.52;76337.13;5029927;28;20053;-85
2021/12/08 03:08:33;;;;;;;7.60;2.53;;;;;;;-144.19;90.34;76344.97;5032095;28;20472;-86
2021/12/08 03:11:00;;;;;;;3.97;2.40;;;;;;;-144.19;91.02;76337.13;5030313;28;20045;-85
2021/12/08 03:13:42;;;;;;;6.35;2.72;;;;;;;-144.19;90.97;76344.97;5030493;28;20050;-86
2021/12/08 03:16:13;;;;;;;5.15;2.42;;;;;;;-144.19;91.47;76335.16;5030103;28;20454;-86
2021/12/08 03:18:41;;;;;;;5.65;2.85;;;;;;;-144.19;91.74;76343.03;5032459;28;20049;-85
2021/12/08 03:21:10;;;;;;;8.70;2.47;;;;;;;-144.19;91.61;76335.16;5030355;28;20053;-86
2021/12/08 03:24:09;;;;;;;6.63;2.95;;;;;;;-144.19;91.43;76341.06;5030562;28;20049;-85
2021/12/08 03:26:43;;;;;;;6.18;2.90;;;;;;;-144.19;92.08;76343.03;5030759;28;20045;-86
2021/12/08 03:29:20;;;;;;;6.47;2.67;;;;;;;-144.19;91.47;76341.06;5030586;28;20049;-85
2021/12/08 03:31:50;;;;;;;6.18;2.83;;;;;;;-144.19;91.84;76346.94;5031286;28;20063;-85
2021/12/08 03:34:19;;;;;;;7.32;3.13;;;;;;;-144.19;91.69;76339.09;5028931;28;20096;-85
2021/12/08 03:36:46;;;;;;;4.43;2.50;;;;;;;-144.19;91.07;76341.06;5009940;28;20050;-84
2021/12/08 03:39:13;;;;;;;5.15;2.08;;;;;;;-144.19;91.03;76339.09;5010769;28;20055;-85
2021/12/08 03:41:39;;;;;;;5.93;2.60;;;;;;;-144.19;90.56;76335.16;5011466;28;20046;-85
2021/12/08 03:44:06;;;;;;;4.72;2.47;;;;;;;-144.19;90.45;76327.28;5011927;28;20072;-85
2021/12/08 03:46:39;;;;;;;5.50;2.60;;;;;;;-144.19;90.26;76331.22;5012165;28;20046;-86
2021/12/08 03:49:10;;;;;;;4.80;2.15;;;;;;;-144.19;90.02;76325.31;5014344;28;20054;-85
2021/12/08 03:51:38;;;;;;;5.97;2.42;;;;;;;-144.19;90.20;76327.28;5014267;28;20060;-85
2021/12/08 03:54:05;;;;;;;5.53;2.20;;;;;;;-144.19;89.82;76319.41;5014392;28;20063;-87
2021/12/08 03:56:32;;;;;;;3.95;2.38;;;;;;;-144.19;89.81;76317.44;5013298;28;20045;-85
2021/12/08 03:58:58;;;;;;;3.97;1.73;;;;;;;-144.19;89.64;76307.59;5015546;28;20052;-84
2021/12/08 04:01:25;;;;;;;5.53;2.35;;;;;;;-144.19;89.38;76309.56;5014286;28;20424;-85
2021/12/08 04:03:52;;;;;;;2.60;2.20;;;;;;;-144.19;89.44;76319.41;5014336;28;20061;-85
2021/12/08 04:06:29;;;;;;;5.85;2.35;;;;;;;-144.19;89.74;76307.59;5027137;28;20359;-84
2021/12/08 04:08:57;;;;;;;3.90;2.47;;;;;;;-144.19;88.93;76299.72;5055280;28;20328;-84
2021/12/08 04:11:25;;;;;;;4.97;2.20;;;;;;;-144.19;89.10;76295.78;5054927;28;20446;-84
2021/12/08 04:13:58;;;;;;;3.75;2.40;;;;;;;-144.19;89.07;76293.81;5054720;28;20049;-85
2021/12/08 04:16:32;;;;;;;4.63;2.15;;;;;;;-144.19;89.22;76291.84;5036471;28;20076;-85
2021/12/08 04:19:00;;;;;;;7.18;3.20;;;;;;;-144.19;89.20;76295.78;5054545;28;20045;-84
2021/12/08 04:21:28;;;;;;;3.42;2.38;;;;;;;-144.19;89.60;76295.78;5054475;28;20078;-84
2021/12/08 04:23:54;;;;;;;5.97;2.53;;;;;;;-144.19;89.71;76283.97;5054291;28;20055;-85
2021/12/08 04:26:27;;;;;;;5.38;2.42;;;;;;;-144.19;90.01;76283.97;5036073;28;20041;-86
2021/12/08 04:28:55;;;;;;;2.83;2.25;;;;;;;-144.19;90.18;76283.97;5036422;28;20064;-86
2021/12/08 04:31:28;;;;;;;4.95;2.90;;;;;;;-144.19;90.87;76283.97;5036792;28;20132;-86
2021/12/08 04:34:01;;;;;;;3.15;2.35;;;;;;;-144.19;91.05;76291.84;5036449;28;20061;-86
2021/12/08 04:36:38;;;;;;;5.10;2.72;;;;;;;-144.19;91.61;76289.88;4996287;28;20373;-87
2021/12/08 04:39:12;;;;;;;5.88;2.50;;;;;;;-144.19;91.40;76280.03;4996897;28;20072;-86
2021/12/08 04:41:44;;;;;;;4.50;2.53;;;;;;;-144.19;91.24;76274.13;5014441;28;20423;-86
2021/12/08 04:44:27;;;;;;;4.35;2.40;;;;;;;-144.19;91.42;76274.13;5014119;28;20057;-86
2021/12/08 04:52:22;;;;;;;6.38;2.80;;;;;;;-144.19;90.18;76244.59;5017285;28;20050;-87
2021/12/08 05:06:23;;;;;;;3.30;2.17;;;;;;;-144.19;89.59;76236.72;5053368;28;20414;-85
2021/12/08 05:08:55;;;;;;;3.78;2.60;;;;;;;-144.19;89.09;76232.78;5035908;28;20065;-88
2021/12/08 05:11:26;;;;;;;5.20;2.97;;;;;;;-144.19;89.31;76224.91;5036001;28;20111;-87
2021/12/08 05:14:01;;;;;;;3.65;2.13;;;;;;;-144.19;89.20;76232.78;5035642;28;20055;-86
2021/12/08 05:16:31;;;;;;;4.82;2.70;;;;;;;-144.19;89.92;76234.75;5036086;28;20045;-89
2021/12/08 05:19:01;;;;;;;2.72;2.17;;;;;;;-144.19;90.01;76236.72;5035974;28;20131;-88
2021/12/08 05:21:54;;;;;;;4.60;2.75;;;;;;;-144.19;89.91;76222.94;5035995;28;20048;-88
2021/12/08 05:24:28;;;;;;;4.70;2.70;;;;;;;-144.19;90.19;76226.88;5035896;28;20049;-88
2021/12/08 05:27:01;;;;;;;4.00;2.22;;;;;;;-144.19;90.16;76226.88;5053024;28;20053;-88
2021/12/08 05:29:51;;;;;;;4.05;2.83;;;;;;;-144.19;89.60;76222.94;5035587;28;20060;-87
2021/12/08 05:32:18;;;;;;;3.95;2.67;;;;;;;-144.19;88.42;76205.25;5035352;28;20049;-88
2021/12/08 05:34:45;;;;;;;6.35;2.72;;;;;;;-144.19;88.06;76213.13;5035538;28;20051;-86
2021/12/08 05:37:14;;;;;;;3.63;2.30;;;;;;;-144.19;88.51;76207.22;5035869;28;20044;-86
2021/12/08 05:39:41;;;;;;;3.08;2.13;;;;;;;-144.19;88.49;76213.13;5035884;28;20053;-88
2021/12/08 05:42:21;;;;;;;3.35;2.03;;;;;;;-144.19;87.83;76213.13;5037172;28;20055;-86
2021/12/08 05:44:48;;;;;;;4.57;2.60;;;;;;;-144.19;87.93;76209.19;5053661;28;20072;-88
2021/12/08 05:47:21;;;;;;;3.92;2.50;;;;;;;-144.19;87.95;76217.03;5034917;28;20049;-84
2021/12/08 05:49:48;;;;;;;2.85;2.42;;;;;;;-144.19;88.30;76230.81;5053230;28;20132;-86
2021/12/08 05:52:15;;;;;;;;;;;;;;;-144.19;88.33;76232.78;5053060;28;20082;-87
2021/12/08 05:54:44;;;;;;;4.38;2.53;;;;;;;-144.19;87.51;76224.91;5035722;28;19940;-87
2021/12/08 05:57:21;;;;;;;5.30;2.75;;;;;;;-144.19;87.71;76234.75;5034174;28;20056;-89
2021/12/08 05:59:50;;;;;;;6.63;2.47;;;;;;;-144.19;88.01;76228.84;5034522;28;20057;-87
2021/12/08 06:02:32;;;;;;;6.28;2.88;;;;;;;-144.19;87.88;76224.91;5034498;28;20076;-89
2021/12/08 06:04:59;;;;;;;5.30;2.35;;;;;;;-144.19;87.93;76228.84;5052330;28;20152;-88
2021/12/08 06:07:26;;;;;;;4.32;2.33;;;;;;;-144.19;87.85;76230.81;5030471;28;20049;-88
2021/12/08 06:09:58;;;;;;;3.40;2.33;;;;;;;-144.19;88.07;76228.84;5027931;28;20053;-86
2021/12/08 06:12:26;;;;;;;3.88;2.30;;;;;;;-144.19;87.76;76234.75;5022016;28;20045;-88
2021/12/08 06:14:55;;;;;;;5.10;2.45;;;;;;;-144.19;88.30;76244.59;5017197;28;20061;-87
2021/12/08 06:17:26;;;;;;;6.05;2.40;;;;;;;-144.19;88.34;76232.78;5016341;28;20045;-88
2021/12/08 06:19:53;;;;;;;3.38;2.40;;;;;;;-144.19;87.64;76232.78;5029667;28;20503;-88
2021/12/08 06:22:22;;;;;;;5.15;2.80;;;;;;;-144.19;87.25;76236.72;5032104;28;20050;-87
2021/12/08 06:24:49;;;;;;;3.95;2.42;;;;;;;-144.19;87.54;76228.84;5030833;28;20375;-91
2021/12/08 06:27:15;;;;;;;2.63;2.42;;;;;;;-144.19;87.45;76244.59;5030774;28;20049;-88
2021/12/08 06:29:45;;;;;;;4.20;2.63;;;;;;;-144.19;87.43;76238.69;5031996;28;20056;-87
2021/12/08 06:32:14;;;;;;;4.05;2.78;;;;;;;-144.19;87.91;76250.50;5031184;28;20083;-88
2021/12/08 06:34:45;;;;;;;4.28;2.83;;;;;;;-144.19;88.13;76242.63;5025933;28;20057;-87
2021/12/08 06:37:22;;;;;;;3.97;2.25;;;;;;;-144.19;86.98;76236.72;5011933;28;20042;-87
2021/12/08 06:40:01;;;;;;;3.42;2.60;;;;;;;-144.19;87.59;76224.91;5011359;28;20722;-89
2021/12/08 06:42:35;;;;;;;3.47;2.72;;;;;;;-144.19;87.37;76232.78;5009306;28;20056;-89
2021/12/08 06:45:06;;;;;;;4.32;2.78;;;;;;;-144.19;87.36;76232.78;5010634;28;20046;-89
2021/12/08 06:47:39;;;;;;;4.30;2.92;;;;;;;-144.19;87.41;76238.69;5010262;28;20130;-87
2021/12/08 06:50:12;;;;;;;4.22;2.63;;;;;;;-144.19;87.40;76236.72;5011623;28;20056;-88
2021/12/08 06:52:40;;;;;;;5.32;3.03;;;;;;;-144.19;86.95;76236.72;5012399;28;20521;-87
2021/12/08 06:55:27;;;;;;;;;;;;;;;-144.19;86.73;76240.66;5011495;28;20400;-87
2021/12/08 06:57:59;;;;;;;5.72;2.88;;;;;;;-144.19;87.19;76248.53;5011717;28;20080;-87
2021/12/08 07:00:49;;;;;;;4.60;2.60;;;;;;;-144.19;87.56;76236.72;5011069;28;20451;-89
2021/12/08 07:03:46;;;;;;;4.22;2.70;;;;;;;-144.19;87.31;76250.50;5011752;28;20081;-86
2021/12/08 07:08:52;;;;;;;3.30;2.65;;;;;;;-144.19;86.62;76240.66;5048460;28;20418;-92
2021/12/08 07:11:21;;;;;;;3.35;2.25;;;;;;;-144.19;86.88;76242.63;5050189;28;20049;-92
2021/12/08 07:13:50;;;;;;;7.22;3.30;;;;;;;-144.19;86.47;76240.66;5049815;28;20077;-92
2021/12/08 07:16:40;;;;;;;4.30;3.40;;;;;;;-144.19;85.96;76236.72;5050082;28;20163;-91
2021/12/08 07:19:21;;;;;;;4.93;3.03;;;;;;;-144.19;86.18;76236.72;5049987;28;20443;-92
2021/12/08 07:21:49;;;;;;;4.32;2.70;;;;;;;-144.19;85.77;76228.84;5050019;28;20494;-91
2021/12/08 07:24:28;;;;;;;4.55;3.05;;;;;;;-144.19;85.61;76230.81;5051657;28;20087;-92
2021/12/08 07:27:01;;;;;;;5.35;3.13;;;;;;;-144.19;85.50;76234.75;5050508;28;20596;-91
2021/12/08 07:29:30;;;;;;;4.43;3.00;;;;;;;-144.19;85.17;76236.72;5050375;28;20049;-93
2021/12/08 07:32:03;;;;;;;5.65;3.38;;;;;;;-144.19;84.75;76230.81;5050148;28;20049;-90
2021/12/08 07:34:32;;;;;;;4.88;3.15;;;;;;;-144.19;85.10;76242.63;5055917;28;20094;-90
2021/12/08 07:37:02;;;;;;;5.20;3.42;;;;;;;-144.19;84.95;76252.47;5069986;28;20049;-91
2021/12/08 07:39:37;;;;;;;6.20;3.50;;;;;;;-144.19;85.45;76256.41;5071123;28;20479;-90
2021/12/08 07:42:16;;;;;;;6.53;2.85;;;;;;;-144.19;85.01;76242.63;5070877;28;20509;-90
2021/12/08 07:44:46;;;;;;;6.35;2.88;;;;;;;-144.19;84.04;76222.94;5070583;28;20055;-90
2021/12/08 07:47:15;;;;;;;6.35;3.53;;;;;;;-144.19;84.18;76232.78;5070385;28;20055;-90
2021/12/08 07:49:50;;;;;;;7.50;3.47;;;;;;;-144.19;84.21;76240.66;5070123;28;20060;-90
2021/12/08 07:52:33;;;;;;;7.05;3.60;;;;;;;-144.19;83.78;76236.72;5070547;28;20095;-90
2021/12/08 07:55:09;;;;;;;6.57;3.75;;;;;;;-144.19;84.85;76256.41;5069835;28;20051;-90
2021/12/08 07:57:36;;;;;;;6.80;3.03;;;;;;;-144.19;84.99;76248.53;5069587;28;20053;-91
2021/12/08 08:00:14;;;;;;;8.65;3.15;;;;;;;-144.19;84.64;76264.28;5070955;28;20053;-90
2021/12/08 08:02:42;;;;;;;5.35;3.45;;;;;;;-144.19;85.25;76272.16;5069629;28;20052;-90
2021/12/08 08:05:14;;;;;;;7.28;3.50;;;;;;;-144.19;85.93;76280.03;5071213;28;20494;-90
2021/12/08 08:07:43;;;;;;;6.93;3.65;;;;;;;-144.19;85.94;76276.09;5069369;28;20055;-90
2021/12/08 08:10:14;;;;;;;6.45;3.42;;;;;;;-144.19;85.38;76268.22;5070666;28;20059;-91
2021/12/08 08:12:44;;;;;;;8.15;3.80;;;;;;;-144.19;84.45;76252.47;5070679;28;20060;-90
2021/12/08 08:15:20;;;;;;;8.40;3.85;;;;;;;-144.19;84.14;76252.47;5070337;28;20044;-89
2021/12/08 08:17:51;;;;;;;9.45;3.47;;;;;;;-144.19;84.16;76252.47;5069656;28;20056;-90
2021/12/08 08:20:24;;;;;;;8.23;3.97;;;;;;;-144.19;84.06;76254.44;5072141;28;20048;-90
2021/12/08 08:22:51;;;;;;;9.25;3.35;;;;;;;-144.19;83.79;76258.38;5072596;28;20052;-90
2021/12/08 08:25:22;;;;;;;8.20;3.20;;;;;;;-144.19;83.72;76264.28;5070383;28;20084;-90
2021/12/08 08:27:50;;;;;;;8.63;3.13;;;;;;;-144.19;83.19;76254.44;5070742;28;20045;-91
2021/12/08 08:30:20;;;;;;;8.20;3.47;;;;;;;-144.19;83.14;76244.59;5069869;28;20092;-90
2021/12/08 08:32:50;;;;;;;7.65;3.60;;;;;;;-144.19;82.66;76252.47;5073296;28;20516;-90
2021/12/08 08:35:38;;;;;;;6.55;3.13;;;;;;;-144.19;82.83;76252.47;5065112;28;20053;-90
2021/12/08 08:38:10;;;;;;;8.32;3.25;;;;;;;-144.19;82.50;76244.59;5054762;28;20491;-90
2021/12/08 08:40:40;;;;;;;6.03;3.42;;;;;;;-144.19;82.56;76252.47;5054612;28;20053;-90
2021/12/08 08:43:08;;;;;;;7.30;3.10;;;;;;;-144.19;82.70;76252.47;5054070;28;20285;-90
2021/12/08 08:45:55;;;;;;;8.30;3.53;;;;;;;-144.19;83.20;76260.34;5054540;28;20055;-91
2021/12/08 08:48:27;;;;;;;8.13;3.40;;;;;;;-144.19;83.18;76252.47;5054480;28;20079;-90
2021/12/08 08:50:59;;;;;;;8.50;3.92;;;;;;;-144.19;82.78;76252.47;5054016;28;20414;-91
2021/12/08 08:53:36;;;;;;;6.90;3.30;;;;;;;-144.19;82.55;76252.47;5054161;28;20280;-91
2021/12/08 08:56:11;;;;;;;7.75;3.53;;;;;;;-144.19;81.82;76252.47;5054205;28;20131;-91
2021/12/08 08:58:42;;;;;;;7.60;3.38;;;;;;;-144.19;82.67;76264.28;5054325;28;20049;-90
2021/12/08 09:01:28;;;;;;;6.25;3.20;;;;;;;-144.19;81.71;76262.31;5054928;28;20439;-90
2021/12/08 09:04:25;;;;;;;9.63;3.50;;;;;;;-144.19;80.99;76256.41;5055831;28;20056;-90
2021/12/08 09:07:02;;;;;;;9.07;3.55;;;;;;;-144.19;81.45;76246.56;5049017;28;20049;-90
2021/12/08 09:09:40;;;;;;;6.63;3.63;;;;;;;-144.19;82.04;76262.31;5053407;28;20140;-90
2021/12/08 09:12:14;;;;;;;7.43;3.90;;;;;;;-144.19;81.55;76258.38;5053872;28;20057;-90
2021/12/08 09:14:55;;;;;;;4.90;3.20;;;;;;;-144.19;80.98;76252.47;5055180;28;20060;-90
2021/12/08 09:17:30;;;;;;;8.88;3.63;;;;;;;-144.19;81.33;76258.38;5054789;28;20049;-90
2021/12/08 09:20:09;;;;;;;10.05;3.95;;;;;;;-144.19;81.46;76266.25;5054342;28;20059;-90
2021/12/08 09:22:41;;;;;;;8.20;3.97;;;;;;;-144.19;82.06;76266.25;5053975;28;20056;-90
2021/12/08 09:25:20;;;;;;;6.30;4.03;;;;;;;-144.19;82.24;76285.94;5054329;28;20487;-89
2021/12/08 09:27:51;;;;;;;5.80;3.53;;;;;;;-144.19;81.86;76283.97;5053254;28;20056;-90
2021/12/08 09:30:33;;;;;;;7.68;4.13;;;;;;;-144.19;81.85;76285.94;5054405;28;20131;-90
2021/12/08 09:33:11;;;;;;;7.32;4.38;;;;;;;-144.19;81.23;76285.94;5054661;28;20414;-89
2021/12/08 09:35:47;;;;;;;6.53;4.15;;;;;;;-144.19;81.25;76295.78;5039244;28;20049;-89
2021/12/08 09:38:21;;;;;;;8.00;4.00;;;;;;;-144.19;81.30;76301.69;5033298;28;20085;-90
2021/12/08 09:41:00;;;;;;;8.27;3.72;;;;;;;-144.19;81.77;76311.53;5032521;28;20053;-90
2021/12/08 09:43:33;;;;;;;9.30;4.13;;;;;;;-144.19;81.04;76299.72;5032196;28;20060;-91
2021/12/08 09:46:08;;;;;;;8.93;4.20;;;;;;;-144.19;81.25;76315.47;5032826;28;20119;-90
2021/12/08 09:48:41;;;;;;;11.15;5.10;;;;;;;-144.19;81.71;76305.63;5033138;28;20053;-90
2021/12/08 09:51:08;;;;;;;7.88;4.25;;;;;;;-144.19;82.17;76307.59;5032707;28;20075;-89
2021/12/08 09:53:35;;;;;;;9.85;4.60;;;;;;;-144.19;81.28;76287.91;5032611;28;20064;-90
2021/12/08 09:56:04;;;;;;;6.07;4.28;;;;;;;-144.19;81.69;76289.88;5048545;28;20135;-90
2021/12/08 09:58:30;;;;;;;9.05;5.10;;;;;;;-144.19;80.72;76268.22;5052388;28;20131;-91
2021/12/08 10:01:00;;;;;;;8.20;4.38;;;;;;;-144.19;79.98;76260.34;5052353;28;20103;-90
2021/12/08 10:03:26;;;;;;;9.18;4.25;;;;;;;-144.19;80.28;76260.34;5051590;28;20056;-90
2021/12/08 10:05:55;;;;;;;11.17;4.07;;;;;;;-144.19;79.44;76246.56;5051651;28;20071;-91
2021/12/08 10:08:21;;;;;;;8.20;4.07;;;;;;;-144.19;80.41;76252.47;5069934;28;20143;-90
2021/12/08 10:10:48;;;;;;;8.80;3.87;;;;;;;-144.19;80.89;76252.47;5055368;28;20078;-91
2021/12/08 10:13:16;;;;;;;6.80;4.07;;;;;;;-144.19;80.70;76234.75;5055553;28;20506;-92
2021/12/08 10:15:42;;;;;;;8.55;4.35;;;;;;;-144.19;79.52;76213.13;5056014;28;20195;-90
2021/12/08 10:18:10;;;;;;;9.20;4.20;;;;;;;-144.19;78.30;76201.31;5056421;28;20498;-91
2021/12/08 10:20:45;;;;;;;8.32;3.92;;;;;;;-144.19;77.76;76213.13;5056605;28;20138;-90
2021/12/08 10:23:20;;;;;;;10.30;4.35;;;;;;;-144.19;77.59;76207.22;5055763;28;20106;-90
2021/12/08 10:25:59;;;;;;;9.25;5.43;;;;;;;-144.19;77.62;76205.25;5073291;28;20044;-89
2021/12/08 10:28:44;;;;;;;7.63;5.00;;;;;;;-144.19;77.84;76161.94;5054342;28;20048;-91
2021/12/08 10:31:14;;;;;;;8.48;4.63;;;;;;;-144.19;75.28;76095.03;5072677;28;20648;-91
2021/12/08 10:33:59;;;;;;;14.68;4.82;;;;;;;-144.19;72.39;76012.34;5054373;28;20053;-91
2021/12/08 10:36:46;;;;;;;8.63;4.85;;;;;;;-144.19;72.98;75894.28;5034997;28;20053;-92
2021/12/08 10:39:31;;;;;;;10.35;4.68;;;;;;;-144.19;69.76;75825.38;5035212;28;20478;-87
2021/12/08 10:42:22;;;;;;;9.05;4.28;;;;;;;-144.19;65.03;75807.69;5035004;28;20055;-90
2021/12/08 10:45:10;;;;;;;7.00;4.15;;;;;;;-144.19;67.66;75772.25;5035147;28;20072;-88
2021/12/08 10:47:39;;;;;;;7.72;3.80;;;;;;;-144.19;66.14;75847.03;5034698;28;20207;-88
2021/12/08 10:55:30;;;;;;;10.18;3.80;;;;;;;-144.19;71.60;76116.66;5070601;28;20044;-90
2021/12/08 10:57:56;;;;;;;7.13;4.37;;;;;;;-144.19;72.70;76110.75;5058639;28;20044;-90
2021/12/08 11:00:28;;;;;;;11.15;4.80;;;;;;;-144.19;73.89;76150.13;5061171;28;20293;-90
2021/12/08 11:03:02;;;;;;;;;;;;;;;-144.19;75.37;76161.94;5056189;28;20052;-89
2021/12/08 11:05:48;;;;;;;7.30;3.77;;;;;;;-144.19;74.72;76177.69;5054820;28;19920;-90
2021/12/08 11:08:17;;;;;;;9.07;4.57;;;;;;;-144.19;75.53;76175.72;5053370;28;20049;-89
2021/12/08 11:11:20;;;;;;;12.93;5.07;;;;;;;-144.19;75.13;76134.38;5053492;28;20060;-89
2021/12/08 11:13:50;;;;;;;8.20;4.47;;;;;;;-144.19;75.07;76130.44;5032006;28;20048;-88
2021/12/08 11:16:21;;;;;;;9.60;5.22;;;;;;;-144.19;75.50;76134.38;5052733;28;20060;-89
2021/12/08 11:18:51;;;;;;;7.93;4.72;;;;;;;-144.19;75.40;76165.88;5070938;28;20044;-90
2021/12/08 11:21:26;;;;;;;10.82;5.15;;;;;;;-144.19;75.60;76169.81;5071294;28;20473;-89
2021/12/08 11:24:20;;;;;;;8.15;4.70;;;;;;;-144.19;75.92;76179.66;5055531;28;20089;-90
2021/12/08 11:26:49;;;;;;;7.68;4.55;;;;;;;-144.19;76.20;76173.75;5052145;28;20396;-89
2021/12/08 11:29:19;;;;;;;10.18;4.75;;;;;;;-144.19;76.09;76173.75;5052414;28;20330;-88
2021/12/08 11:31:53;;;;;;;8.90;5.18;;;;;;;-144.19;75.88;76167.84;5053384;28;20080;-89
2021/12/08 11:34:28;;;;;;;9.90;5.20;;;;;;;-144.19;75.96;76169.81;5070689;28;20049;-89
2021/12/08 11:37:02;;;;;;;7.10;4.57;;;;;;;-144.19;75.78;76177.69;5069460;28;20072;-89
2021/12/08 11:39:30;;;;;;;8.77;5.05;;;;;;;-144.19;76.15;76177.69;5069027;28;20127;-88
2021/12/08 11:42:06;;;;;;;6.85;4.53;;;;;;;-144.19;76.42;76193.44;5069602;28;20058;-90
2021/12/08 11:44:37;;;;;;;10.60;6.32;;;;;;;-144.19;76.27;76173.75;5070440;28;20045;-89
2021/12/08 11:47:10;;;;;;;11.07;5.60;;;;;;;-144.19;76.42;76185.56;5070449;28;20048;-89
2021/12/08 11:49:45;;;;;;;8.93;5.07;;;;;;;-144.19;76.50;76177.69;5069135;28;20048;-91
2021/12/08 11:52:18;;;;;;;8.48;4.40;;;;;;;-144.19;76.20;76183.59;5069578;28;20413;-89
2021/12/08 11:54:50;;;;;;;9.45;5.15;;;;;;;-144.19;75.95;76175.72;5066864;28;20044;-89
2021/12/08 11:57:37;;;;;;;7.72;4.68;;;;;;;-144.19;76.53;76185.56;5069919;28;20127;-89
2021/12/08 12:00:26;;;;;;;9.98;4.63;;;;;;;-144.19;75.72;76169.81;5052250;28;20057;-90
2021/12/08 12:02:57;;;;;;;9.32;4.70;;;;;;;-144.19;74.93;76167.84;5052563;28;20048;-89
2021/12/08 12:05:40;;;;;;;8.43;5.20;;;;;;;-144.19;75.13;76171.78;5053507;28;20151;-89
2021/12/08 12:08:12;;;;;;;9.75;6.15;;;;;;;-144.19;75.10;76185.56;5056027;28;20049;-90
2021/12/08 12:10:45;;;;;;;13.23;5.05;;;;;;;-144.19;75.57;76185.56;5056056;28;20059;-90
2021/12/08 12:13:12;;;;;;;9.05;4.85;;;;;;;-144.19;75.39;76169.81;5056482;28;20052;-89
2021/12/08 12:15:44;;;;;;;7.28;4.90;;;;;;;-144.19;75.38;76177.69;5056304;28;20048;-89
2021/12/08 12:18:12;;;;;;;11.93;5.35;;;;;;;-144.19;74.91;76173.75;5056204;28;20486;-91
2021/12/08 12:20:44;;;;;;;10.65;4.75;;;;;;;-144.19;75.62;76191.47;5056592;28;20055;-89
2021/12/08 12:23:57;;;;;;;9.18;5.20;;;;;;;-144.19;75.91;76177.69;5056210;28;20059;-88
2021/12/08 12:26:39;;;;;;;10.98;4.68;;;;;;;-144.19;75.53;76187.53;5073243;28;20051;-89